createdAt,value
2018-09-21T00:00:11.558Z,94996.39
2018-09-21T00:03:16.828Z,94996.28
2018-09-21T00:06:21.693Z,94995.11
2018-09-21T00:09:26.039Z,94987.77
2018-09-21T00:12:30.910Z,94989.34
2018-09-21T00:15:36.516Z,94985.83
2018-09-21T00:18:40.883Z,94984.16
2018-09-21T00:21:45.281Z,94973.90
2018-09-21T00:24:49.908Z,94965.66
2018-09-21T00:27:54.269Z,94969.27
2018-09-21T00:30:58.591Z,94963.93
2018-09-21T00:34:02.897Z,94971.72
2018-09-21T00:37:07.283Z,94967.93
2018-09-21T00:40:11.979Z,94959.49
2018-09-21T00:43:16.901Z,94964.83
2018-09-21T00:46:21.223Z,94962.55
2018-09-21T00:49:25.572Z,94958.11
2018-09-21T00:52:29.953Z,94958.44
2018-09-21T00:55:35.756Z,94954.77
2018-09-21T00:58:40.082Z,94951.53
2018-09-21T01:01:44.585Z,94946.22
2018-09-21T01:04:48.911Z,94942.66
2018-09-21T01:07:53.314Z,94943.55
2018-09-21T01:10:57.727Z,94938.22
2018-09-21T01:14:02.043Z,94935.77
2018-09-21T01:17:06.810Z,94932.17
2018-09-21T01:20:11.143Z,94926.06
2018-09-21T01:23:15.508Z,94921.77
2018-09-21T01:26:20.112Z,94922.83
2018-09-21T01:29:24.596Z,94924.78
2018-09-21T01:32:29.024Z,94916.00
2018-09-21T01:35:33.468Z,94923.94
2018-09-21T01:38:37.877Z,94927.89
2018-09-21T01:41:42.240Z,94923.67
2018-09-21T01:44:46.580Z,94918.46
2018-09-21T01:47:52.610Z,94913.23
2018-09-21T01:50:56.991Z,94919.12
2018-09-21T01:54:01.309Z,94903.73
2018-09-21T01:57:05.641Z,94908.63
2018-09-21T02:00:10.500Z,94908.98
2018-09-21T02:03:14.822Z,94904.77
2018-09-21T02:06:19.188Z,94904.64
2018-09-21T02:09:23.545Z,94906.47
2018-09-21T02:12:27.948Z,94898.25
2018-09-21T02:15:33.131Z,94904.36
2018-09-21T02:18:37.474Z,94902.92
2018-09-21T02:21:41.820Z,94905.30
2018-09-21T02:24:46.141Z,94903.87
2018-09-21T02:27:50.549Z,94898.54
2018-09-21T02:30:55.152Z,94899.66
2018-09-21T02:33:59.503Z,94895.09
2018-09-21T02:37:03.844Z,94894.09
2018-09-21T02:40:08.847Z,94897.81
2018-09-21T02:43:13.199Z,94894.59
2018-09-21T02:46:17.495Z,94898.36
2018-09-21T02:49:21.840Z,94893.73
2018-09-21T02:52:26.160Z,94889.16
2018-09-21T02:55:30.477Z,94886.08
2018-09-21T02:58:34.786Z,94885.98
2018-09-21T03:01:39.204Z,94884.42
2018-09-21T03:04:48.887Z,94886.87
2018-09-21T03:07:53.768Z,94885.91
2018-09-21T03:10:58.512Z,94887.58
2018-09-21T03:14:02.926Z,94885.80
2018-09-21T03:17:07.376Z,94889.02
2018-09-21T03:20:12.337Z,94887.73
2018-09-21T03:23:16.656Z,94882.51
2018-09-21T03:26:21.124Z,94879.84
2018-09-21T03:29:25.537Z,94880.95
2018-09-21T03:32:29.964Z,94877.19
2018-09-21T03:35:34.412Z,94883.06
2018-09-21T03:38:38.842Z,94883.95
2018-09-21T03:41:44.017Z,94886.63
2018-09-21T03:44:48.340Z,94890.28
2018-09-21T03:47:53.272Z,94896.30
2018-09-21T03:50:58.415Z,94887.39
2018-09-21T03:54:02.831Z,94885.84
2018-09-21T03:57:08.163Z,94887.06
2018-09-21T04:00:12.506Z,94882.07
2018-09-21T04:03:17.159Z,94884.95
2018-09-21T04:06:22.041Z,94881.52
2018-09-21T04:09:26.820Z,94883.89
2018-09-21T04:12:31.416Z,94877.72
2018-09-21T04:15:36.598Z,94886.59
2018-09-21T04:22:19.246Z,94887.63
2018-09-21T04:25:23.776Z,94883.78
2018-09-21T04:28:29.362Z,94870.25
2018-09-21T04:31:36.864Z,94871.92
2018-09-21T04:34:41.226Z,94867.03
2018-09-21T04:37:45.768Z,94871.58
2018-09-21T04:40:51.391Z,94866.59
2018-09-21T04:43:55.993Z,94866.92
2018-09-21T04:47:00.336Z,94858.78
2018-09-21T04:50:05.514Z,94859.78
2018-09-21T04:53:09.829Z,94862.56
2018-09-21T04:56:14.185Z,94859.34
2018-09-21T04:59:18.512Z,94865.17
2018-09-21T05:02:22.816Z,94863.89
2018-09-21T05:05:27.160Z,94864.05
2018-09-21T05:08:31.515Z,94859.27
2018-09-21T05:11:35.844Z,94860.34
2018-09-21T05:14:40.151Z,94863.11
2018-09-21T05:17:44.497Z,94873.39
2018-09-21T05:20:48.832Z,94869.72
2018-09-21T05:23:53.169Z,94875.86
2018-09-21T05:26:57.501Z,94875.41
2018-09-21T05:30:01.816Z,94879.48
2018-09-21T05:33:06.184Z,94884.09
2018-09-21T05:36:10.508Z,94875.64
2018-09-21T05:39:15.412Z,94878.27
2018-09-21T05:42:19.804Z,94876.39
2018-09-21T05:45:24.213Z,94879.59
2018-09-21T05:48:29.000Z,94878.46
2018-09-21T05:51:33.348Z,94871.00
2018-09-21T05:54:37.701Z,94875.72
2018-09-21T05:57:42.014Z,94878.27
2018-09-21T06:00:46.356Z,94878.09
2018-09-21T06:03:50.668Z,94879.37
2018-09-21T06:06:55.010Z,94875.39
2018-09-21T06:09:59.324Z,94880.05
2018-09-21T06:13:03.646Z,94878.48
2018-09-21T06:16:08.164Z,94877.53
2018-09-21T06:19:12.687Z,94878.15
2018-09-21T06:22:17.021Z,94875.31
2018-09-21T06:25:21.581Z,94871.37
2018-09-21T06:28:26.181Z,94870.20
2018-09-21T06:31:30.536Z,94869.33
2018-09-21T06:34:34.872Z,94873.88
2018-09-21T06:37:39.180Z,94876.86
2018-09-21T06:40:43.506Z,94875.33
2018-09-21T06:43:48.491Z,94873.66
2018-09-21T06:46:52.816Z,94864.27
2018-09-21T06:49:57.204Z,94864.00
2018-09-21T06:53:01.518Z,94860.78
2018-09-21T06:56:05.857Z,94853.28
2018-09-21T06:59:10.172Z,94856.50
2018-09-21T07:02:14.529Z,94855.66
2018-09-21T07:05:19.177Z,94860.72
2018-09-21T07:08:23.493Z,94855.54
2018-09-21T07:11:27.813Z,94855.35
2018-09-21T07:14:32.114Z,94857.70
2018-09-21T07:17:36.540Z,94856.42
2018-09-21T07:20:40.884Z,94864.14
2018-09-21T07:23:45.227Z,94863.71
2018-09-21T07:26:49.588Z,94861.94
2018-09-21T07:29:54.031Z,94859.70
2018-09-21T07:32:58.332Z,94860.05
2018-09-21T07:36:02.731Z,94862.73
2018-09-21T07:39:08.245Z,94861.95
2018-09-21T07:42:12.588Z,94851.22
2018-09-21T07:45:16.889Z,94862.34
2018-09-21T07:48:21.197Z,94857.53
2018-09-21T07:51:25.513Z,94858.88
2018-09-21T07:54:29.816Z,94862.67
2018-09-21T07:57:34.128Z,94869.69
2018-09-21T08:00:38.569Z,94858.34
2018-09-21T08:03:42.941Z,94867.61
2018-09-21T08:06:47.287Z,94862.97
2018-09-21T08:09:51.677Z,94863.06
2018-09-21T08:12:56.029Z,94855.91
2018-09-21T08:16:00.408Z,94858.63
2018-09-21T08:19:05.162Z,94858.64
2018-09-21T08:22:09.480Z,94863.00
2018-09-21T08:25:13.923Z,94857.98
2018-09-21T08:28:18.236Z,94869.69
2018-09-21T08:31:22.573Z,94868.00
2018-09-21T08:34:26.876Z,94861.65
2018-09-21T08:37:31.260Z,94857.00
2018-09-21T08:40:35.576Z,94854.39
2018-09-21T08:43:40.074Z,94848.05
2018-09-21T08:46:44.532Z,94848.05
2018-09-21T08:49:48.848Z,94852.23
2018-09-21T08:52:53.146Z,94851.91
2018-09-21T08:55:57.449Z,94856.55
2018-09-21T08:59:01.821Z,94853.09
2018-09-21T09:02:06.129Z,94852.50
2018-09-21T09:05:10.434Z,94857.32
2018-09-21T09:08:15.056Z,94847.98
2018-09-21T09:11:19.638Z,94860.66
2018-09-21T09:14:23.953Z,94847.14
2018-09-21T09:17:28.256Z,94851.22
2018-09-21T09:20:32.560Z,94843.91
2018-09-21T09:23:36.849Z,94841.80
2018-09-21T09:26:41.150Z,94844.41
2018-09-21T09:29:45.484Z,94833.41
2018-09-21T09:32:49.801Z,94833.85
2018-09-21T09:35:54.154Z,94834.83
2018-09-21T09:38:58.655Z,94830.08
2018-09-21T09:42:03.032Z,94834.98
2018-09-21T09:45:07.352Z,94826.59
2018-09-21T09:48:11.754Z,94830.34
2018-09-21T09:51:16.048Z,94820.50
2018-09-21T09:54:20.336Z,94823.31
2018-09-21T09:57:24.641Z,94831.02
2018-09-21T10:00:34.261Z,94833.91
2018-09-21T10:03:38.639Z,94829.66
2018-09-21T10:06:42.848Z,94826.77
2018-09-21T10:09:47.140Z,94827.90
2018-09-21T10:12:51.427Z,94826.20
2018-09-21T10:15:55.723Z,94823.11
2018-09-21T10:19:00.082Z,94813.98
2018-09-21T10:22:04.403Z,94806.27
2018-09-21T10:25:08.788Z,94799.47
2018-09-21T10:28:13.235Z,94792.48
2018-09-21T10:31:17.572Z,94796.11
2018-09-21T10:34:21.919Z,94793.35
2018-09-21T10:37:26.322Z,94792.66
2018-09-21T10:40:30.669Z,94790.55
2018-09-21T10:43:35.625Z,94788.75
2018-09-21T10:46:39.992Z,94791.80
2018-09-21T10:49:44.475Z,94788.12
2018-09-21T10:52:48.908Z,94787.90
2018-09-21T10:55:53.400Z,94789.39
2018-09-21T10:58:57.889Z,94778.69
2018-09-21T11:02:02.280Z,94784.21
2018-09-21T11:05:06.724Z,94781.31
2018-09-21T11:08:11.068Z,94774.08
2018-09-21T11:11:15.380Z,94774.59
2018-09-21T11:14:19.748Z,94770.73
2018-09-21T11:17:24.100Z,94769.92
2018-09-21T11:20:28.478Z,94763.78
2018-09-21T11:23:32.823Z,94760.59
2018-09-21T11:26:37.228Z,94761.81
2018-09-21T11:29:41.546Z,94748.52
2018-09-21T11:32:45.868Z,94754.93
2018-09-21T11:35:50.216Z,94749.67
2018-09-21T11:38:54.887Z,94751.80
2018-09-21T11:41:59.237Z,94752.20
2018-09-21T11:45:03.561Z,94748.67
2018-09-21T11:48:07.941Z,94742.61
2018-09-21T11:51:12.286Z,94738.56
2018-09-21T11:54:16.633Z,94734.78
2018-09-21T11:57:20.996Z,94725.67
2018-09-21T12:00:25.326Z,94732.00
2018-09-21T12:03:29.645Z,94722.52
2018-09-21T12:06:34.041Z,94714.13
2018-09-21T12:09:38.392Z,94709.64
2018-09-21T12:12:42.718Z,94704.16
2018-09-21T12:15:47.038Z,94701.23
2018-09-21T12:18:51.358Z,94690.87
2018-09-21T12:21:55.695Z,94686.92
2018-09-21T12:25:00.060Z,94686.05
2018-09-21T12:28:04.388Z,94687.10
2018-09-21T12:31:08.706Z,94694.78
2018-09-21T12:34:13.014Z,94682.28
2018-09-21T12:37:17.308Z,94688.91
2018-09-21T12:40:21.650Z,94680.59
2018-09-21T12:43:26.040Z,94683.21
2018-09-21T12:46:30.628Z,94683.48
2018-09-21T12:49:36.538Z,94676.34
2018-09-21T12:52:41.024Z,94677.07
2018-09-21T12:55:45.439Z,94661.92
2018-09-21T12:58:49.958Z,94668.39
2018-09-21T13:01:54.292Z,94666.22
2018-09-21T13:04:58.748Z,94671.14
2018-09-21T13:08:03.063Z,94670.11
2018-09-21T13:11:07.513Z,94661.69
2018-09-21T13:14:11.930Z,94661.30
2018-09-21T13:17:16.333Z,94656.70
2018-09-21T13:20:20.712Z,94654.98
2018-09-21T13:23:25.018Z,94654.71
2018-09-21T13:26:29.399Z,94660.24
2018-09-21T13:29:33.701Z,94657.59
2018-09-21T13:32:38.024Z,94651.63
2018-09-21T13:35:42.352Z,94641.63
2018-09-21T13:38:46.724Z,94638.85
2018-09-21T13:41:51.068Z,94634.27
2018-09-21T13:44:55.386Z,94634.00
2018-09-21T13:47:59.748Z,94633.13
2018-09-21T13:51:04.044Z,94634.38
2018-09-21T13:54:08.412Z,94629.09
2018-09-21T13:57:12.759Z,94608.80
2018-09-21T14:00:17.169Z,94619.28
2018-09-21T14:03:21.472Z,94612.58
2018-09-21T14:06:25.854Z,94602.23
2018-09-21T14:09:30.197Z,94598.68
2018-09-21T14:12:34.492Z,94588.69
2018-09-21T14:15:38.803Z,94589.32
2018-09-21T14:18:43.110Z,94595.09
2018-09-21T14:21:47.433Z,94590.59
2018-09-21T14:24:51.777Z,94586.09
2018-09-21T14:27:56.138Z,94590.34
2018-09-21T14:31:00.514Z,94591.25
2018-09-21T14:34:04.833Z,94574.89
2018-09-21T14:37:09.246Z,94574.63
2018-09-21T14:40:13.743Z,94574.47
2018-09-21T14:43:18.115Z,94573.62
2018-09-21T14:46:22.464Z,94570.73
2018-09-21T14:49:26.865Z,94577.38
2018-09-21T14:52:31.193Z,94573.43
2018-09-21T14:55:35.493Z,94569.28
2018-09-21T14:58:39.957Z,94569.19
2018-09-21T15:01:44.302Z,94557.38
2018-09-21T15:04:48.800Z,94547.81
2018-09-21T15:07:53.477Z,94542.48
2018-09-21T15:10:57.951Z,94534.67
2018-09-21T15:14:03.065Z,94543.37
2018-09-21T15:17:07.421Z,94546.86
2018-09-21T15:20:12.409Z,94548.76
2018-09-21T15:23:16.735Z,94558.77
2018-09-21T15:26:21.105Z,94558.20
2018-09-21T15:29:25.529Z,94567.22
2018-09-21T15:32:29.950Z,94571.41
2018-09-21T15:35:34.371Z,94567.11
2018-09-21T15:38:38.813Z,94581.73
2018-09-21T15:41:43.469Z,94575.54
2018-09-21T15:44:47.996Z,94567.30
2018-09-21T15:47:53.006Z,94573.09
2018-09-21T15:50:57.561Z,94574.41
2018-09-21T15:54:02.097Z,94569.33
2018-09-21T15:57:06.569Z,94558.14
2018-09-21T16:00:11.012Z,94558.31
2018-09-21T16:03:15.363Z,94572.12
2018-09-21T16:06:19.767Z,94575.95
2018-09-21T16:09:24.242Z,94575.47
2018-09-21T16:12:28.585Z,94573.83
2018-09-21T16:15:32.913Z,94575.14
2018-09-21T16:18:37.338Z,94578.77
2018-09-21T16:21:41.729Z,94586.95
2018-09-21T16:24:46.029Z,94587.50
2018-09-21T16:27:50.377Z,94591.12
2018-09-21T16:30:54.678Z,94583.95
2018-09-21T16:33:59.027Z,94576.19
2018-09-21T16:37:03.357Z,94577.36
2018-09-21T16:40:07.855Z,94582.27
2018-09-21T16:43:12.303Z,94587.56
2018-09-21T16:46:16.597Z,94595.63
2018-09-21T16:49:20.940Z,94588.17
2018-09-21T16:52:25.337Z,94591.49
2018-09-21T16:55:29.653Z,94606.23
2018-09-21T16:58:33.964Z,94614.29
2018-09-21T17:01:38.262Z,94624.73
2018-09-21T17:04:42.578Z,94636.57
2018-09-21T17:07:46.875Z,94634.46
2018-09-21T17:10:51.165Z,94638.69
2018-09-21T17:13:55.562Z,94647.33
2018-09-21T17:16:59.940Z,94657.81
2018-09-21T17:20:04.346Z,94664.47
2018-09-21T17:23:08.618Z,94669.52
2018-09-21T17:26:12.981Z,94678.98
2018-09-21T17:29:17.318Z,94684.09
2018-09-21T17:32:21.898Z,94693.16
2018-09-21T17:35:26.208Z,94691.78
2018-09-21T17:38:30.580Z,94701.25
2018-09-21T17:41:34.938Z,94715.87
2018-09-21T17:44:39.444Z,94707.07
2018-09-21T17:47:43.817Z,94721.27
2018-09-21T17:50:48.298Z,94733.15
2018-09-21T17:53:52.718Z,94736.36
2018-09-21T17:56:57.090Z,94741.61
2018-09-21T18:00:01.410Z,94749.42
2018-09-21T18:03:05.762Z,94755.96
2018-09-21T18:06:10.119Z,94762.13
2018-09-21T18:09:14.447Z,94776.03
2018-09-21T18:12:18.916Z,94787.03
2018-09-21T18:15:23.342Z,94803.52
2018-09-21T18:18:27.688Z,94804.14
2018-09-21T18:21:32.015Z,94819.48
2018-09-21T18:24:36.409Z,94825.55
2018-09-21T18:27:40.810Z,94831.20
2018-09-21T18:30:45.163Z,94823.02
2018-09-21T18:33:49.489Z,94830.05
2018-09-21T18:36:53.975Z,94828.95
2018-09-21T18:40:07.825Z,94827.07
2018-09-21T18:43:13.970Z,94841.70
2018-09-21T18:46:18.286Z,94848.27
2018-09-21T18:49:22.581Z,94835.39
2018-09-21T18:52:26.938Z,94832.36
2018-09-21T18:55:31.625Z,94835.05
2018-09-21T18:58:36.043Z,94830.04
2018-09-21T19:01:40.341Z,94842.91
2018-09-21T19:04:44.735Z,94858.59
2018-09-21T19:07:49.055Z,94858.55
2018-09-21T19:10:53.461Z,94868.64
2018-09-21T19:13:57.788Z,94878.70
2018-09-21T19:17:02.253Z,94896.45
2018-09-21T19:20:08.942Z,94907.44
2018-09-21T19:23:13.245Z,94931.71
2018-09-21T19:26:17.611Z,94939.60
2018-09-21T19:29:22.036Z,94943.05
2018-09-21T19:32:26.450Z,94930.88
2018-09-21T19:35:30.768Z,94992.97
2018-09-21T19:38:35.119Z,94980.30
2018-09-21T19:41:39.446Z,95001.82
2018-09-21T19:44:43.808Z,95025.72
2018-09-21T19:47:48.115Z,95064.33
2018-09-21T19:50:54.457Z,95063.64
2018-09-21T19:53:58.811Z,95083.05
2018-09-21T19:57:03.629Z,95093.91
2018-09-21T20:00:09.764Z,95117.14
2018-09-21T20:03:14.282Z,95129.27
2018-09-21T20:06:18.742Z,95139.11
2018-09-21T20:09:23.187Z,95123.22
2018-09-21T20:12:27.597Z,95121.58
2018-09-21T20:15:32.028Z,95141.23
2018-09-21T20:18:36.448Z,95141.13
2018-09-21T20:21:40.997Z,95156.71
2018-09-21T20:24:45.364Z,95158.16
2018-09-21T20:27:49.773Z,95182.19
2018-09-21T20:30:59.510Z,95178.45
2018-09-21T20:34:03.810Z,95187.59
2018-09-21T20:37:08.255Z,95195.15
2018-09-21T20:40:12.695Z,95194.25
2018-09-21T20:43:17.198Z,95225.58
2018-09-21T20:46:21.894Z,95239.77
2018-09-21T20:49:26.228Z,95237.56
2018-09-21T20:52:30.604Z,95248.33
2018-09-21T20:55:35.611Z,95262.77
2018-09-21T20:58:40.148Z,95270.30
2018-09-21T21:01:44.562Z,95285.95
2018-09-21T21:04:49.253Z,95283.91
2018-09-21T21:07:53.854Z,95288.88
2018-09-21T21:10:59.372Z,95310.34
2018-09-21T21:14:03.800Z,95321.55
2018-09-21T21:17:08.221Z,95328.12
2018-09-21T21:20:12.627Z,95343.15
2018-09-21T21:23:16.991Z,95336.09
2018-09-21T21:26:21.520Z,95344.73
2018-09-21T21:29:26.147Z,95347.12
2018-09-21T21:32:30.650Z,95353.66
2018-09-21T21:35:35.380Z,95350.45
2018-09-21T21:38:40.068Z,95346.02
2018-09-21T21:41:44.499Z,95351.58
2018-09-21T21:44:49.080Z,95363.44
2018-09-21T21:47:53.450Z,95356.68
2018-09-21T21:50:57.967Z,95374.23
2018-09-21T21:54:02.421Z,95381.13
2018-09-21T21:57:07.266Z,95393.02
2018-09-21T22:00:11.931Z,95394.99
2018-09-21T22:03:16.253Z,95407.09
2018-09-21T22:06:20.572Z,95416.50
2018-09-21T22:09:24.883Z,95413.09
2018-09-21T22:12:34.581Z,95426.75
2018-09-21T22:15:38.986Z,95414.76
2018-09-21T22:18:43.331Z,95420.96
2018-09-21T22:25:25.403Z,95433.41
2018-09-21T22:28:29.729Z,95440.17
2018-09-21T22:31:34.285Z,95448.75
2018-09-21T22:34:38.602Z,95436.63
2018-09-21T22:37:43.054Z,95441.50
2018-09-21T22:40:47.371Z,95445.73
2018-09-21T22:43:51.808Z,95469.84
2018-09-21T22:46:56.311Z,95467.50
2018-09-21T22:50:00.653Z,95469.72
2018-09-21T22:53:05.052Z,95485.44
2018-09-21T22:56:10.781Z,95489.30
2018-09-21T22:59:15.206Z,95486.30
2018-09-21T23:02:19.560Z,95486.61
2018-09-21T23:05:23.845Z,95496.09
2018-09-21T23:08:29.145Z,95497.11
2018-09-21T23:11:33.662Z,95488.26
2018-09-21T23:14:37.989Z,95497.75
2018-09-21T23:17:42.411Z,95512.27
2018-09-21T23:20:46.877Z,95510.34
2018-09-21T23:23:58.133Z,95514.95
2018-09-21T23:27:02.458Z,95521.35
2018-09-21T23:30:06.774Z,95537.33
2018-09-21T23:33:11.473Z,95547.87
2018-09-21T23:36:15.779Z,95543.46
2018-09-21T23:39:20.232Z,95533.80
2018-09-21T23:42:24.642Z,95530.64
2018-09-21T23:45:29.013Z,95513.83
2018-09-21T23:48:33.566Z,95518.52
2018-09-21T23:51:37.917Z,95514.08
2018-09-21T23:54:42.292Z,95527.70
2018-09-21T23:57:46.709Z,95513.02
